createdAt,value
2022-09-01T00:15:36.998Z,1.00
2022-09-01T00:35:37.230Z,1.20
2022-09-01T00:55:36.419Z,1.80
2022-09-01T01:15:36.148Z,1.40
2022-09-01T01:35:35.913Z,1.00
2022-09-01T01:55:35.592Z,1.60
2022-09-01T02:15:35.331Z,1.90
2022-09-01T02:35:35.080Z,1.80
2022-09-01T02:55:34.794Z,1.80
2022-09-01T03:15:34.529Z,2.30
2022-09-01T03:35:34.270Z,2.50
2022-09-01T03:55:33.983Z,3.10
2022-09-01T04:15:33.720Z,2.90
2022-09-01T04:35:37.797Z,3.80
2022-09-01T04:55:40.686Z,3.80
2022-09-01T05:15:32.912Z,3.30
2022-09-01T05:35:33.216Z,2.20
2022-09-01T05:55:32.406Z,2.30
2022-09-01T06:15:32.128Z,2.30
2022-09-01T06:35:31.850Z,2.50
2022-09-01T06:55:31.706Z,2.20
2022-09-01T07:16:31.881Z,2.30
2022-09-01T07:35:32.011Z,1.70
2022-09-01T07:55:30.763Z,0.50
2022-09-01T08:35:30.176Z,0.90
2022-09-01T08:55:29.918Z,0.90
2022-09-01T09:15:29.728Z,1.80
2022-09-01T09:35:29.393Z,0.90
2022-09-01T09:55:29.194Z,0.30
2022-09-01T10:15:30.164Z,0.50
2022-09-01T10:35:28.560Z,0.60
2022-09-01T10:55:28.289Z,0.60
2022-09-01T11:15:28.031Z,0.40
2022-09-01T11:35:27.751Z,0.90
2022-09-01T11:55:27.524Z,0.10
2022-09-01T12:15:28.278Z,0.90
2022-09-01T12:35:26.952Z,1.40
2022-09-01T13:15:26.603Z,0.80
2022-09-01T13:35:26.223Z,2.00
2022-09-01T13:55:25.873Z,0.80
2022-09-01T14:15:27.484Z,0.70
2022-09-01T14:35:25.301Z,0.50
2022-09-01T14:55:25.063Z,1.40
2022-09-01T15:15:24.836Z,0.50
2022-09-01T15:35:24.507Z,0.30
2022-09-01T15:55:25.265Z,1.40
2022-09-01T16:15:23.964Z,1.10
2022-09-01T16:35:23.745Z,0.80
2022-09-01T16:55:23.529Z,1.00
2022-09-01T17:15:23.203Z,1.00
2022-09-01T17:35:22.912Z,1.60
2022-09-01T17:55:22.692Z,0.40
2022-09-01T18:15:22.385Z,1.00
2022-09-01T18:35:22.123Z,1.00
2022-09-01T18:55:21.915Z,1.00
2022-09-01T19:15:21.678Z,0.80
2022-09-01T19:35:21.391Z,0.80
2022-09-01T19:55:21.002Z,2.20
2022-09-01T20:15:20.734Z,0.90
2022-09-01T20:35:20.522Z,1.20
2022-09-01T20:55:20.208Z,0.80
2022-09-01T21:15:20.003Z,1.30
2022-09-01T21:35:19.677Z,1.60
2022-09-01T21:55:22.705Z,0.90
2022-09-01T22:15:19.107Z,1.60
2022-09-01T22:35:18.850Z,0.80
2022-09-01T22:55:18.595Z,0.80
2022-09-01T23:15:18.307Z,0.70
2022-09-01T23:35:18.061Z,2.30
2022-09-01T23:55:17.762Z,0.90
